createdAt,value
2022-08-28T00:00:07.448Z,0
2022-08-28T00:05:11.622Z,0
2022-08-28T00:10:15.783Z,0
2022-08-28T00:15:19.913Z,0
2022-08-28T00:20:24.084Z,0
2022-08-28T00:25:28.263Z,0
2022-08-28T00:30:32.389Z,0
2022-08-28T00:35:36.553Z,0
2022-08-28T00:40:40.769Z,0
2022-08-28T00:45:44.892Z,0
2022-08-28T00:50:49.067Z,0
2022-08-28T00:55:53.207Z,0
2022-08-28T01:00:57.374Z,0
2022-08-28T01:06:01.518Z,0
2022-08-28T01:11:05.688Z,0
2022-08-28T01:16:09.934Z,0
2022-08-28T01:21:16.866Z,0
2022-08-28T01:26:16.288Z,0
2022-08-28T01:31:20.462Z,0
2022-08-28T01:36:22.680Z,0
2022-08-28T01:41:26.864Z,0
2022-08-28T01:46:31.097Z,0
2022-08-28T01:51:38.172Z,0
2022-08-28T01:56:39.360Z,0
2022-08-28T02:01:43.588Z,0
2022-08-28T02:06:47.655Z,0
2022-08-28T02:11:51.823Z,0
2022-08-28T02:16:55.980Z,0
2022-08-28T02:22:00.167Z,0
2022-08-28T02:27:04.323Z,0
2022-08-28T02:32:08.433Z,0
2022-08-28T02:37:12.619Z,0
2022-08-28T02:42:16.751Z,0
2022-08-28T02:47:20.926Z,0
2022-08-28T02:52:25.111Z,0
2022-08-28T02:57:29.254Z,0
2022-08-28T03:02:33.542Z,0
2022-08-28T03:07:37.613Z,0
2022-08-28T03:12:41.737Z,0
2022-08-28T03:17:45.902Z,0
2022-08-28T03:22:48.146Z,0
2022-08-28T03:27:52.329Z,0
2022-08-28T03:32:54.586Z,0
2022-08-28T03:37:58.763Z,0
2022-08-28T03:43:02.941Z,0
2022-08-28T03:48:07.068Z,0
2022-08-28T03:53:11.254Z,0
2022-08-28T03:58:18.832Z,0
2022-08-28T04:03:19.607Z,0
2022-08-28T04:08:23.754Z,0
2022-08-28T04:13:27.884Z,0
2022-08-28T04:18:32.055Z,2
2022-08-28T04:23:36.204Z,7
2022-08-28T04:28:40.395Z,17
2022-08-28T04:33:44.512Z,37
2022-08-28T04:38:48.656Z,70
2022-08-28T04:43:52.849Z,110
2022-08-28T04:48:57.007Z,160
2022-08-28T04:54:01.152Z,234
2022-08-28T04:59:05.350Z,335
2022-08-28T05:04:09.476Z,475
2022-08-28T05:09:13.621Z,630
2022-08-28T05:14:17.803Z,775
2022-08-28T05:19:20.083Z,855
2022-08-28T05:24:24.256Z,913
2022-08-28T05:29:28.403Z,983
2022-08-28T05:34:32.565Z,1051
2022-08-28T05:39:36.725Z,1150
2022-08-28T05:44:40.861Z,1217
2022-08-28T05:49:45.034Z,1333
2022-08-28T05:54:49.208Z,1436
2022-08-28T05:59:53.371Z,1601
2022-08-28T06:04:57.548Z,1910
2022-08-28T06:10:01.669Z,2375
2022-08-28T06:15:05.834Z,2740
2022-08-28T06:20:10.007Z,2970
2022-08-28T06:25:16.216Z,3189
2022-08-28T06:30:18.333Z,3425
2022-08-28T06:35:22.501Z,3694
2022-08-28T06:40:26.706Z,3741
2022-08-28T06:45:30.910Z,3869
2022-08-28T06:50:34.950Z,4080
2022-08-28T06:55:39.154Z,4118
2022-08-28T07:00:43.280Z,3623
2022-08-28T07:05:45.559Z,3420
2022-08-28T07:10:49.945Z,3773
2022-08-28T07:15:52.041Z,3831
2022-08-28T07:20:56.152Z,3553
2022-08-28T07:26:00.300Z,3095
2022-08-28T07:31:04.540Z,3088
2022-08-28T07:36:08.652Z,3184
2022-08-28T07:41:12.773Z,2580
2022-08-28T07:46:17.041Z,2360
2022-08-28T10:58:54.990Z,2488
2022-08-28T11:03:57.309Z,2591
2022-08-28T11:09:01.445Z,2375
2022-08-28T11:14:05.593Z,3102
2022-08-28T11:19:07.827Z,2446
2022-08-28T11:24:26.045Z,2318
2022-08-28T11:29:28.311Z,2134
2022-08-28T11:34:46.442Z,2305
2022-08-28T11:39:48.714Z,2506
2022-08-28T11:45:08.912Z,2798
2022-08-28T11:50:25.075Z,2065
2022-08-28T11:55:43.243Z,3800
2022-08-28T12:01:01.443Z,2606
2022-08-28T12:06:03.698Z,2818
2022-08-28T12:11:14.838Z,2758
2022-08-28T12:16:26.134Z,2529
2022-08-28T12:21:37.196Z,3696
2022-08-28T12:26:48.350Z,2510
2022-08-28T12:31:59.536Z,2305
2022-08-28T12:37:10.670Z,2346
2022-08-28T12:42:12.972Z,2550
2022-08-28T12:47:17.134Z,2273
2022-08-28T12:52:21.259Z,2249
2022-08-28T12:57:25.439Z,2701
2022-08-28T13:02:29.678Z,2473
2022-08-28T13:07:33.738Z,2515
2022-08-28T13:12:54.672Z,3526
2022-08-28T13:17:42.064Z,2467
2022-08-28T13:22:50.962Z,3238
2022-08-28T13:27:50.356Z,2350
2022-08-28T13:32:54.560Z,2675
2022-08-28T13:37:58.662Z,2515
2022-08-28T13:43:02.884Z,2527
2022-08-28T13:48:06.991Z,3361
2022-08-28T13:53:11.365Z,2707
2022-08-28T13:58:15.315Z,3335
2022-08-28T14:03:19.475Z,2272
2022-08-28T14:08:23.624Z,2225
2022-08-28T14:13:27.834Z,2378
2022-08-28T14:18:31.977Z,2449
2022-08-28T14:23:38.726Z,2415
2022-08-28T14:28:38.475Z,2362
2022-08-28T14:33:42.562Z,2410
2022-08-28T14:38:46.704Z,2319
2022-08-28T14:43:50.883Z,2440
2022-08-28T14:48:55.027Z,2732
2022-08-28T14:53:59.236Z,2757
2022-08-28T14:59:03.331Z,2860
2022-08-28T15:04:07.603Z,3884
2022-08-28T15:09:11.660Z,20035
2022-08-28T15:14:15.821Z,21426
2022-08-28T15:19:19.988Z,17031
2022-08-28T15:24:24.115Z,20924
2022-08-28T15:29:28.308Z,7052
2022-08-28T15:34:32.441Z,18723
2022-08-28T15:39:36.650Z,16876
2022-08-28T15:44:40.806Z,16906
2022-08-28T15:49:49.726Z,16561
2022-08-28T15:54:49.119Z,17271
2022-08-28T15:59:53.253Z,20303
2022-08-28T16:04:57.423Z,13698
2022-08-28T16:10:01.586Z,10937
2022-08-28T16:15:03.848Z,7290
2022-08-28T16:20:11.049Z,6649
2022-08-28T16:25:12.192Z,5435
2022-08-28T16:30:16.313Z,5833
2022-08-28T16:35:20.470Z,5365
2022-08-28T16:40:24.729Z,4766
2022-08-28T16:45:28.770Z,4461
2022-08-28T16:50:32.958Z,3754
2022-08-28T16:55:37.099Z,3081
2022-08-28T17:00:52.307Z,2536
2022-08-28T17:10:49.630Z,1884
2022-08-28T17:15:53.759Z,1827
2022-08-28T17:20:57.905Z,1743
2022-08-28T17:26:02.062Z,1677
2022-08-28T17:31:06.271Z,1579
2022-08-28T17:36:21.250Z,1507
2022-08-28T17:41:14.525Z,1430
2022-08-28T17:46:18.746Z,1270
2022-08-28T17:51:23.482Z,904
2022-08-28T17:56:35.644Z,720
2022-08-28T18:01:31.245Z,612
2022-08-28T18:06:33.444Z,520
2022-08-28T18:11:37.606Z,420
2022-08-28T18:16:40.010Z,290
2022-08-28T18:21:44.076Z,202
2022-08-28T18:26:46.285Z,141
2022-08-28T18:31:50.493Z,95
2022-08-28T18:36:52.766Z,58
2022-08-28T18:41:56.891Z,31
2022-08-28T18:46:59.203Z,15
2022-08-28T18:52:03.341Z,6
2022-08-28T18:57:07.465Z,2
2022-08-28T19:02:11.763Z,0
2022-08-28T19:07:15.781Z,0
2022-08-28T19:12:19.994Z,0
2022-08-28T19:17:24.112Z,0
2022-08-28T19:22:28.571Z,0
2022-08-28T19:27:32.461Z,0
2022-08-28T19:32:36.619Z,0
2022-08-28T19:37:42.683Z,0
2022-08-28T19:42:44.888Z,0
2022-08-28T19:52:53.243Z,0
2022-08-28T19:57:57.402Z,0
2022-08-28T20:03:01.621Z,0
2022-08-28T20:08:05.845Z,0
2022-08-28T20:13:09.854Z,0
2022-08-28T20:18:14.191Z,0
2022-08-28T20:23:18.194Z,0
2022-08-28T20:28:22.356Z,0
2022-08-28T20:33:26.529Z,0
2022-08-28T20:43:32.925Z,0
2022-08-28T20:48:35.195Z,0
2022-08-28T20:53:39.356Z,0
2022-08-28T20:58:41.656Z,0
2022-08-28T21:03:45.914Z,0
2022-08-28T21:08:49.972Z,0
2022-08-28T21:13:54.123Z,0
2022-08-28T21:19:15.265Z,0
2022-08-28T21:24:02.473Z,0
2022-08-28T21:29:06.607Z,0
2022-08-28T21:34:10.764Z,0
2022-08-28T21:39:14.904Z,0
2022-08-28T21:44:19.066Z,0
2022-08-28T21:49:23.243Z,0
2022-08-28T21:54:27.397Z,0
2022-08-28T21:59:33.134Z,0
2022-08-28T22:04:35.745Z,0
2022-08-28T22:09:39.900Z,0
2022-08-28T22:14:44.067Z,0
2022-08-28T22:19:48.218Z,0
2022-08-28T22:24:52.355Z,0
2022-08-28T22:29:56.527Z,0
2022-08-28T22:35:00.725Z,0
2022-08-28T22:40:13.270Z,0
2022-08-28T22:45:07.127Z,0
2022-08-28T22:50:11.273Z,0
2022-08-28T22:55:13.551Z,0
2022-08-28T23:00:17.851Z,0
2022-08-28T23:05:21.862Z,0
2022-08-28T23:10:48.368Z,0
2022-08-28T23:15:30.171Z,0
2022-08-28T23:20:34.362Z,0
2022-08-28T23:25:38.503Z,0
2022-08-28T23:30:48.180Z,0
2022-08-28T23:35:46.817Z,0
2022-08-28T23:40:50.999Z,0
2022-08-28T23:45:55.189Z,0
2022-08-28T23:50:59.292Z,0
2022-08-28T23:56:03.456Z,0
